createdAt,value
2023-12-02T00:02:18.557Z,64.70
2023-12-02T00:07:21.439Z,64.30
2023-12-02T00:12:25.728Z,65.00
2023-12-02T00:17:28.625Z,64.50
2023-12-02T00:22:31.499Z,63.60
2023-12-02T00:27:35.702Z,63.70
2023-12-02T00:32:38.556Z,64.30
2023-12-02T00:37:41.470Z,63.30
2023-12-02T00:42:45.652Z,62.70
2023-12-02T00:47:48.505Z,61.50
2023-12-02T00:52:51.319Z,62.30
2023-12-02T00:57:55.458Z,60.70
2023-12-02T01:02:58.298Z,61.80
2023-12-02T01:08:01.169Z,62.90
2023-12-02T01:13:05.377Z,62.50
2023-12-02T01:18:08.283Z,63.60
2023-12-02T01:23:11.177Z,62.80
2023-12-02T01:28:15.376Z,64.40
2023-12-02T01:33:18.313Z,62.30
2023-12-02T01:38:21.421Z,63.30
2023-12-02T01:43:27.848Z,63.60
2023-12-02T01:48:37.400Z,65.60
2023-12-02T01:53:40.743Z,65.00
2023-12-02T01:58:45.210Z,65.10
2023-12-02T02:03:50.045Z,66.10
2023-12-02T02:08:52.940Z,65.30
2023-12-02T02:13:57.114Z,65.50
2023-12-02T02:19:00.144Z,64.90
2023-12-02T02:24:04.434Z,64.60
2023-12-02T02:29:07.270Z,64.10
2023-12-02T02:34:10.124Z,64.20
2023-12-02T02:39:14.392Z,64.70
2023-12-02T02:44:17.227Z,64.00
2023-12-02T02:49:21.321Z,65.20
2023-12-02T02:54:25.650Z,64.80
2023-12-02T02:59:29.449Z,65.40
2023-12-02T03:04:32.254Z,66.20
2023-12-02T03:09:36.722Z,64.00
2023-12-02T03:14:39.792Z,62.60
2023-12-02T03:19:43.898Z,64.50
2023-12-02T03:24:48.078Z,62.80
2023-12-02T03:29:50.938Z,60.10
2023-12-02T03:34:53.785Z,58.50
2023-12-02T03:39:57.958Z,59.30
2023-12-02T03:45:00.893Z,60.80
2023-12-02T03:50:04.370Z,59.40
2023-12-02T03:55:09.446Z,60.30
2023-12-02T04:00:14.187Z,60.90
2023-12-02T04:05:17.075Z,59.50
2023-12-02T04:10:21.259Z,61.20
2023-12-02T04:15:24.188Z,60.60
2023-12-02T04:20:27.027Z,59.10
2023-12-02T04:25:31.215Z,60.40
2023-12-02T04:30:34.090Z,61.60
2023-12-02T04:35:37.647Z,62.10
2023-12-02T04:40:41.810Z,64.50
2023-12-02T04:45:44.796Z,63.20
2023-12-02T04:50:47.647Z,63.20
2023-12-02T04:55:53.699Z,62.00
2023-12-02T05:00:56.546Z,60.30
2023-12-02T05:05:59.468Z,61.30
2023-12-02T05:11:03.680Z,59.80
2023-12-02T05:16:07.822Z,61.20
2023-12-02T05:21:11.470Z,62.80
2023-12-02T05:26:16.753Z,61.30
2023-12-02T05:31:20.524Z,58.30
2023-12-02T05:36:23.361Z,58.20
2023-12-02T05:41:27.567Z,60.10
2023-12-02T05:46:30.761Z,61.00
2023-12-02T05:51:33.691Z,61.70
2023-12-02T05:56:37.920Z,62.30
2023-12-02T06:01:40.817Z,62.50
2023-12-02T06:06:47.393Z,62.90
2023-12-02T06:11:51.580Z,64.50
2023-12-02T06:16:54.448Z,63.20
2023-12-02T06:21:57.296Z,62.80
2023-12-02T06:27:01.607Z,60.40
2023-12-02T06:32:04.967Z,61.70
2023-12-02T06:37:07.822Z,61.20
2023-12-02T06:42:13.122Z,61.10
2023-12-02T06:47:16.630Z,59.20
2023-12-02T06:52:19.536Z,60.30
2023-12-02T06:57:23.729Z,61.60
2023-12-02T07:02:27.484Z,61.50
2023-12-02T07:07:30.355Z,61.90
2023-12-02T07:12:34.616Z,64.00
2023-12-02T07:17:37.520Z,63.60
2023-12-02T07:22:40.406Z,61.00
2023-12-02T07:27:44.604Z,62.50
2023-12-02T07:32:47.898Z,62.00
2023-12-02T07:37:50.753Z,64.40
2023-12-02T07:42:54.949Z,62.40
2023-12-02T07:47:58.675Z,63.70
2023-12-02T07:53:01.652Z,64.20
2023-12-02T07:58:05.901Z,62.50
2023-12-02T08:03:08.800Z,60.60
2023-12-02T08:08:11.935Z,61.90
2023-12-02T08:13:16.232Z,62.40
2023-12-02T08:18:21.754Z,61.80
2023-12-02T08:23:24.585Z,62.10
2023-12-02T08:28:28.824Z,63.40
2023-12-02T08:33:31.659Z,64.30
2023-12-02T08:38:35.956Z,63.40
2023-12-02T08:43:43.410Z,63.80
2023-12-02T08:48:46.778Z,62.80
2023-12-02T08:53:51.157Z,60.70
2023-12-02T08:58:55.788Z,60.00
2023-12-02T09:03:58.723Z,59.20
2023-12-02T09:09:01.708Z,58.20
2023-12-02T09:14:06.013Z,58.20
2023-12-02T09:19:52.311Z,58.20
2023-12-02T09:24:55.192Z,57.70
2023-12-02T09:29:59.346Z,57.70
2023-12-02T09:35:02.760Z,56.90
2023-12-02T09:40:37.519Z,56.70
2023-12-02T09:45:48.495Z,57.70
2023-12-02T09:51:02.339Z,57.70
2023-12-02T09:56:14.851Z,57.00
2023-12-02T10:01:37.255Z,57.20
2023-12-02T10:06:52.013Z,56.50
2023-12-02T10:12:07.053Z,57.10
2023-12-02T10:17:13.790Z,55.80
2023-12-02T10:22:19.881Z,57.10
2023-12-02T10:27:25.157Z,56.20
2023-12-02T10:32:35.078Z,57.10
2023-12-02T10:37:41.120Z,56.30
2023-12-02T10:42:58.427Z,56.30
2023-12-02T10:48:03.035Z,57.70
2023-12-02T10:53:07.025Z,56.90
2023-12-02T10:58:11.797Z,56.70
2023-12-02T11:03:23.429Z,56.30
2023-12-02T11:08:38.057Z,57.60
2023-12-02T11:13:41.093Z,56.50
2023-12-02T11:18:57.060Z,58.30
2023-12-02T11:24:07.552Z,57.20
2023-12-02T11:29:19.454Z,57.60
2023-12-02T11:34:34.780Z,57.70
2023-12-02T11:39:47.440Z,58.00
2023-12-02T11:45:04.038Z,57.10
2023-12-02T11:50:22.900Z,58.30
2023-12-02T11:55:34.072Z,58.10
2023-12-02T12:00:48.730Z,57.70
2023-12-02T12:06:03.547Z,57.70
2023-12-02T12:11:10.163Z,58.10
2023-12-02T12:16:13.069Z,57.90
2023-12-02T12:21:17.284Z,57.20
2023-12-02T12:26:20.351Z,56.80
2023-12-02T12:31:23.380Z,57.60
2023-12-02T12:36:30.709Z,57.40
2023-12-02T12:41:33.723Z,58.00
2023-12-02T12:46:36.899Z,57.80
2023-12-02T12:51:44.274Z,57.30
2023-12-02T12:56:48.756Z,56.70
2023-12-02T13:02:00.028Z,56.80
2023-12-02T13:07:11.851Z,56.30
2023-12-02T13:12:19.849Z,56.50
2023-12-02T13:17:23.463Z,56.60
2023-12-02T13:22:29.853Z,56.80
2023-12-02T13:27:38.275Z,57.00
2023-12-02T13:32:44.856Z,57.20
2023-12-02T13:38:03.595Z,57.80
2023-12-02T13:43:12.549Z,58.00
2023-12-02T13:48:23.672Z,57.90
2023-12-02T13:53:37.003Z,57.80
2023-12-02T13:58:42.657Z,58.40
2023-12-02T14:03:56.132Z,58.20
2023-12-02T14:09:08.159Z,58.30
2023-12-02T14:14:33.050Z,57.70
2023-12-02T14:20:10.265Z,58.20
2023-12-02T14:25:26.967Z,58.40
2023-12-02T14:30:55.062Z,58.20
2023-12-02T14:36:02.288Z,58.10
2023-12-02T14:41:20.755Z,59.40
2023-12-02T14:46:23.623Z,58.90
2023-12-02T14:51:26.933Z,58.90
2023-12-02T14:56:48.914Z,59.80
2023-12-02T15:01:55.852Z,58.50
2023-12-02T15:06:59.115Z,58.90
2023-12-02T15:12:06.302Z,59.50
2023-12-02T15:17:10.477Z,59.20
2023-12-02T15:22:20.229Z,59.40
2023-12-02T15:27:24.912Z,59.60
2023-12-02T15:32:27.786Z,60.00
2023-12-02T15:37:31.200Z,60.10
2023-12-02T15:42:35.460Z,60.10
2023-12-02T15:47:38.364Z,59.80
2023-12-02T15:52:41.273Z,59.00
2023-12-02T15:57:45.928Z,59.70
2023-12-02T16:02:49.670Z,60.60
2023-12-02T16:07:52.562Z,62.20
2023-12-02T16:12:57.851Z,64.00
2023-12-02T16:18:01.553Z,63.30
2023-12-02T16:23:04.661Z,63.00
2023-12-02T16:28:08.988Z,63.50
2023-12-02T16:33:11.940Z,63.40
2023-12-02T16:38:16.186Z,62.80
2023-12-02T16:43:21.697Z,62.40
2023-12-02T16:48:25.351Z,61.80
2023-12-02T16:53:28.255Z,63.00
2023-12-02T16:58:36.486Z,63.10
2023-12-02T17:03:40.972Z,63.90
2023-12-02T17:08:44.835Z,63.90
2023-12-02T17:13:52.032Z,62.90
2023-12-02T17:19:09.049Z,63.70
2023-12-02T17:24:19.069Z,63.90
2023-12-02T17:29:26.296Z,63.20
2023-12-02T17:34:31.371Z,62.00
2023-12-02T17:39:34.288Z,61.90
2023-12-02T17:44:38.512Z,61.30
2023-12-02T17:49:41.395Z,61.30
2023-12-02T17:54:44.286Z,60.90
2023-12-02T17:59:48.480Z,61.40
2023-12-02T18:04:51.415Z,62.00
2023-12-02T18:09:54.295Z,61.90
2023-12-02T18:14:58.504Z,63.10
2023-12-02T18:20:01.826Z,61.40
2023-12-02T18:25:04.973Z,62.00
2023-12-02T18:30:10.478Z,62.40
2023-12-02T18:35:13.304Z,61.10
2023-12-02T18:40:16.850Z,61.70
2023-12-02T18:45:21.245Z,63.00
2023-12-02T18:50:24.092Z,61.90
2023-12-02T18:55:26.908Z,62.30
2023-12-02T19:00:31.473Z,62.20
2023-12-02T19:05:34.347Z,62.40
2023-12-02T19:10:37.212Z,62.10
2023-12-02T19:15:41.563Z,61.70
2023-12-02T19:20:44.409Z,62.70
2023-12-02T19:25:47.353Z,63.00
2023-12-02T19:30:51.625Z,63.00
2023-12-02T19:35:54.487Z,63.00
2023-12-02T19:40:57.313Z,62.60
2023-12-02T19:46:01.491Z,63.00
2023-12-02T19:51:06.407Z,62.80
2023-12-02T19:56:15.504Z,63.10
2023-12-02T20:01:20.521Z,63.20
2023-12-02T20:06:23.426Z,63.60
2023-12-02T20:11:43.805Z,62.80
2023-12-02T20:16:50.292Z,63.80
2023-12-02T20:21:53.081Z,64.40
2023-12-02T20:26:56.174Z,64.70
2023-12-02T20:32:00.506Z,64.30
2023-12-02T20:37:03.484Z,64.40
2023-12-02T20:42:06.749Z,63.90
2023-12-02T20:47:11.035Z,64.20
2023-12-02T20:52:13.966Z,63.70
2023-12-02T20:57:17.003Z,66.70
2023-12-02T21:02:21.222Z,65.90
2023-12-02T21:07:24.025Z,65.70
2023-12-02T21:12:29.359Z,65.30
2023-12-02T21:17:35.726Z,64.30
2023-12-02T21:22:38.577Z,65.70
2023-12-02T21:27:45.048Z,65.30
2023-12-02T21:32:49.317Z,66.80
2023-12-02T21:37:52.210Z,64.90
2023-12-02T21:42:55.428Z,66.20
2023-12-02T21:47:59.602Z,66.80
2023-12-02T21:53:02.450Z,66.70
2023-12-02T21:58:05.270Z,67.20
2023-12-02T22:03:09.463Z,66.30
2023-12-02T22:08:12.556Z,67.40
2023-12-02T22:13:21.515Z,66.90
2023-12-02T22:18:25.713Z,66.20
2023-12-02T22:23:28.574Z,65.70
2023-12-02T22:28:31.433Z,68.00
2023-12-02T22:33:35.743Z,68.10
2023-12-02T22:38:40.000Z,68.20
2023-12-02T22:43:44.802Z,69.20
2023-12-02T22:48:51.259Z,68.20
2023-12-02T22:53:55.414Z,68.70
2023-12-02T22:58:58.398Z,67.90
2023-12-02T23:04:13.538Z,67.90
2023-12-02T23:09:37.078Z,66.20
2023-12-02T23:14:43.123Z,66.60
2023-12-02T23:19:47.641Z,67.50
2023-12-02T23:24:50.605Z,67.70
2023-12-02T23:29:53.536Z,69.40
2023-12-02T23:34:57.849Z,67.80
2023-12-02T23:40:01.008Z,68.20
2023-12-02T23:45:04.747Z,67.00
2023-12-02T23:50:10.322Z,66.50
2023-12-02T23:55:14.133Z,66.90
